createdAt,value
2019-03-12T00:00:26.800Z,95.84
2019-03-12T00:01:26.795Z,96.15
2019-03-12T00:02:26.619Z,96.36
2019-03-12T00:03:26.700Z,96.20
2019-03-12T00:04:29.671Z,95.32
2019-03-12T00:05:26.632Z,95.32
2019-03-12T00:06:26.487Z,95.21
2019-03-12T00:07:26.439Z,95.63
2019-03-12T00:08:26.446Z,95.63
2019-03-12T00:09:26.464Z,95.42
2019-03-12T00:10:26.565Z,95.01
2019-03-12T00:11:26.419Z,94.90
2019-03-12T00:12:26.386Z,94.80
2019-03-12T00:13:27.172Z,95.01
2019-03-12T00:14:26.364Z,94.53
2019-03-12T00:15:26.403Z,95.78
2019-03-12T00:16:26.825Z,95.15
2019-03-12T00:17:26.350Z,95.01
2019-03-12T00:18:28.489Z,94.38
2019-03-12T00:19:26.306Z,94.53
2019-03-12T00:20:26.298Z,93.66
2019-03-12T00:21:26.321Z,93.70
2019-03-12T00:22:26.291Z,93.97
2019-03-12T00:23:26.645Z,94.18
2019-03-12T00:24:26.245Z,93.97
2019-03-12T00:25:26.247Z,94.01
2019-03-12T00:26:26.246Z,94.22
2019-03-12T00:27:26.420Z,94.12
2019-03-12T00:28:26.223Z,93.60
2019-03-12T00:29:26.190Z,93.70
2019-03-12T00:30:26.179Z,93.70
2019-03-12T00:31:33.750Z,93.80
2019-03-12T00:32:26.181Z,94.43
2019-03-12T00:33:26.159Z,94.22
2019-03-12T00:34:26.124Z,94.43
2019-03-12T00:35:26.113Z,94.74
2019-03-12T00:36:26.117Z,94.43
2019-03-12T00:37:26.104Z,94.53
2019-03-12T00:38:26.118Z,94.43
2019-03-12T00:39:26.088Z,94.22
2019-03-12T00:40:26.060Z,94.57
2019-03-12T00:41:26.050Z,93.49
2019-03-12T00:42:26.056Z,93.49
2019-03-12T00:43:26.047Z,93.70
2019-03-12T00:44:26.015Z,93.39
2019-03-12T00:45:26.027Z,93.54
2019-03-12T00:46:27.239Z,93.60
2019-03-12T00:47:25.978Z,93.60
2019-03-12T00:48:26.001Z,93.64
2019-03-12T00:49:25.964Z,94.22
2019-03-12T00:50:25.953Z,94.53
2019-03-12T00:51:25.937Z,93.91
2019-03-12T00:52:25.928Z,94.53
2019-03-12T00:53:25.941Z,94.84
2019-03-12T00:54:25.935Z,93.91
2019-03-12T00:55:25.896Z,93.60
2019-03-12T00:56:25.893Z,94.74
2019-03-12T00:57:25.868Z,93.91
2019-03-12T00:58:25.879Z,94.12
2019-03-12T00:59:25.872Z,94.12
2019-03-12T01:00:25.857Z,94.22
2019-03-12T01:01:25.866Z,94.64
2019-03-12T01:02:25.850Z,94.53
2019-03-12T01:03:25.813Z,94.32
2019-03-12T01:04:25.797Z,94.12
2019-03-12T01:05:25.797Z,93.91
2019-03-12T01:06:25.776Z,93.60
2019-03-12T01:07:25.836Z,94.28
2019-03-12T01:08:25.747Z,96.57
2019-03-12T01:09:25.740Z,95.05
2019-03-12T01:10:25.722Z,94.07
2019-03-12T01:11:25.734Z,93.55
2019-03-12T01:12:25.701Z,93.76
2019-03-12T01:13:25.723Z,94.18
2019-03-12T01:14:25.757Z,94.07
2019-03-12T01:15:25.672Z,93.55
2019-03-12T01:16:25.664Z,93.45
2019-03-12T01:17:25.660Z,93.14
2019-03-12T01:18:34.528Z,93.35
2019-03-12T01:19:25.621Z,92.93
2019-03-12T01:20:25.606Z,93.45
2019-03-12T01:21:25.612Z,93.66
2019-03-12T01:22:25.602Z,93.76
2019-03-12T01:23:28.522Z,93.45
2019-03-12T01:24:25.581Z,93.66
2019-03-12T01:25:25.553Z,93.66
2019-03-12T01:26:25.543Z,93.93
2019-03-12T01:27:25.556Z,94.18
2019-03-12T01:28:25.538Z,94.70
2019-03-12T01:29:25.520Z,94.24
2019-03-12T01:30:25.495Z,95.28
2019-03-12T01:31:25.479Z,94.55
2019-03-12T01:32:25.506Z,93.72
2019-03-12T01:33:25.475Z,94.24
2019-03-12T01:34:25.481Z,93.93
2019-03-12T01:35:25.447Z,93.72
2019-03-12T01:36:25.425Z,92.47
2019-03-12T01:37:25.431Z,93.37
2019-03-12T01:38:25.446Z,92.78
2019-03-12T01:39:25.442Z,92.26
2019-03-12T01:40:25.386Z,92.68
2019-03-12T01:41:25.370Z,92.36
2019-03-12T01:42:25.362Z,91.95
2019-03-12T01:43:25.412Z,92.57
2019-03-12T01:44:25.352Z,92.57
2019-03-12T01:45:25.324Z,93.10
2019-03-12T01:46:25.316Z,92.68
2019-03-12T01:47:25.304Z,91.95
2019-03-12T01:48:25.291Z,91.39
2019-03-12T01:49:25.307Z,91.70
2019-03-12T01:50:25.309Z,92.11
2019-03-12T01:51:25.280Z,92.36
2019-03-12T01:52:25.292Z,92.26
2019-03-12T01:53:25.238Z,91.80
2019-03-12T01:54:25.236Z,92.26
2019-03-12T01:55:25.227Z,91.02
2019-03-12T01:56:25.224Z,91.39
2019-03-12T01:57:25.245Z,90.77
2019-03-12T01:58:25.192Z,91.43
2019-03-12T01:59:25.201Z,90.70
2019-03-12T02:00:25.175Z,89.77
2019-03-12T02:01:25.154Z,90.29
2019-03-12T02:02:25.133Z,90.19
2019-03-12T02:03:25.127Z,90.08
2019-03-12T02:04:25.109Z,90.25
2019-03-12T02:05:25.277Z,90.19
2019-03-12T02:06:25.089Z,90.39
2019-03-12T02:07:25.088Z,90.60
2019-03-12T02:08:25.067Z,90.70
2019-03-12T02:09:25.067Z,91.02
2019-03-12T02:10:25.125Z,91.43
2019-03-12T02:11:25.032Z,91.22
2019-03-12T02:12:25.024Z,90.97
2019-03-12T02:13:25.025Z,90.25
2019-03-12T02:14:25.022Z,89.94
2019-03-12T02:15:24.988Z,90.45
2019-03-12T02:16:25.017Z,90.39
2019-03-12T02:17:24.968Z,90.77
2019-03-12T02:18:24.999Z,90.97
2019-03-12T02:19:25.005Z,90.97
2019-03-12T02:20:24.972Z,89.94
2019-03-12T02:21:24.915Z,90.35
2019-03-12T02:22:24.985Z,90.04
2019-03-12T02:23:24.895Z,90.45
2019-03-12T02:24:25.074Z,90.45
2019-03-12T02:25:24.890Z,90.25
2019-03-12T02:26:24.921Z,89.94
2019-03-12T02:27:24.940Z,90.35
2019-03-12T02:28:24.871Z,89.94
2019-03-12T02:29:24.838Z,90.25
2019-03-12T02:30:24.837Z,90.97
2019-03-12T02:31:24.818Z,90.66
2019-03-12T02:32:24.798Z,90.77
2019-03-12T02:33:24.783Z,90.66
2019-03-12T02:34:24.779Z,90.97
2019-03-12T02:35:24.780Z,90.77
2019-03-12T02:36:24.802Z,90.14
2019-03-12T02:37:24.761Z,90.35
2019-03-12T02:38:24.725Z,90.35
2019-03-12T02:39:24.721Z,90.25
2019-03-12T02:40:24.718Z,90.25
2019-03-12T02:41:24.709Z,90.97
2019-03-12T02:42:24.735Z,90.77
2019-03-12T02:43:24.667Z,90.14
2019-03-12T02:44:24.670Z,89.79
2019-03-12T02:45:24.678Z,90.52
2019-03-12T02:46:24.647Z,89.73
2019-03-12T02:47:24.635Z,90.04
2019-03-12T02:48:24.629Z,90.00
2019-03-12T02:49:24.636Z,89.94
2019-03-12T02:50:24.614Z,90.93
2019-03-12T02:51:24.588Z,90.62
2019-03-12T02:52:24.592Z,89.79
2019-03-12T02:53:24.566Z,90.41
2019-03-12T02:54:24.569Z,90.62
2019-03-12T02:55:24.544Z,90.93
2019-03-12T02:56:24.549Z,90.83
2019-03-12T02:57:24.515Z,89.79
2019-03-12T02:58:24.516Z,90.31
2019-03-12T02:59:24.532Z,90.14
2019-03-12T03:00:24.557Z,90.10
2019-03-12T03:01:24.464Z,90.00
2019-03-12T03:02:24.470Z,90.20
2019-03-12T03:03:24.476Z,90.25
2019-03-12T03:04:24.464Z,90.41
2019-03-12T03:05:24.442Z,89.69
2019-03-12T03:06:24.404Z,90.20
2019-03-12T03:07:24.415Z,89.27
2019-03-12T03:08:24.399Z,90.41
2019-03-12T03:09:24.395Z,90.10
2019-03-12T03:10:24.421Z,90.10
2019-03-12T03:11:24.354Z,90.10
2019-03-12T03:12:24.373Z,89.94
2019-03-12T03:13:24.343Z,90.00
2019-03-12T03:14:24.334Z,90.10
2019-03-12T03:15:24.312Z,90.20
2019-03-12T03:16:24.789Z,90.97
2019-03-12T03:17:24.290Z,90.72
2019-03-12T03:18:24.282Z,90.93
2019-03-12T03:19:24.280Z,90.41
2019-03-12T03:20:24.267Z,90.31
2019-03-12T03:21:24.281Z,90.10
2019-03-12T03:22:24.293Z,89.89
2019-03-12T03:23:24.225Z,90.00
2019-03-12T03:24:24.210Z,90.20
2019-03-12T03:25:24.207Z,89.79
2019-03-12T03:26:24.216Z,90.25
2019-03-12T03:27:24.181Z,89.69
2019-03-12T03:28:24.159Z,90.04
2019-03-12T03:29:24.166Z,90.00
2019-03-12T03:30:24.272Z,90.31
2019-03-12T03:31:24.156Z,89.69
2019-03-12T03:32:24.140Z,90.20
2019-03-12T03:33:24.127Z,90.31
2019-03-12T03:34:27.646Z,90.52
2019-03-12T03:35:24.086Z,90.20
2019-03-12T03:36:24.095Z,89.37
2019-03-12T03:37:25.027Z,90.10
2019-03-12T03:38:24.055Z,89.89
2019-03-12T03:39:24.037Z,90.00
2019-03-12T03:40:24.019Z,90.10
2019-03-12T03:41:24.026Z,90.06
2019-03-12T03:42:24.007Z,88.75
2019-03-12T03:43:24.008Z,89.37
2019-03-12T03:44:24.025Z,89.65
2019-03-12T03:45:23.997Z,89.27
2019-03-12T03:46:23.967Z,89.37
2019-03-12T03:47:23.945Z,89.89
2019-03-12T03:48:23.949Z,90.00
2019-03-12T03:49:23.981Z,90.20
2019-03-12T03:50:23.908Z,90.00
2019-03-12T03:51:23.914Z,89.54
2019-03-12T03:52:23.903Z,89.06
2019-03-12T03:53:23.894Z,90.20
2019-03-12T03:54:23.877Z,89.37
2019-03-12T03:55:23.892Z,89.34
2019-03-12T03:56:23.881Z,88.09
2019-03-12T03:57:23.828Z,88.92
2019-03-12T03:58:23.835Z,88.92
2019-03-12T03:59:23.813Z,88.40
2019-03-12T04:00:23.826Z,88.82
2019-03-12T04:01:23.860Z,88.71
2019-03-12T04:02:23.781Z,88.92
2019-03-12T04:03:23.765Z,88.71
2019-03-12T04:04:23.751Z,88.09
2019-03-12T04:05:23.759Z,88.40
2019-03-12T04:06:23.772Z,88.71
2019-03-12T04:07:23.736Z,88.20
2019-03-12T04:08:23.726Z,87.88
2019-03-12T04:09:23.708Z,88.51
2019-03-12T04:10:23.680Z,88.30
2019-03-12T04:11:23.706Z,88.20
2019-03-12T04:12:23.673Z,87.78
2019-03-12T04:13:23.653Z,87.57
2019-03-12T04:14:23.634Z,88.51
2019-03-12T04:15:23.812Z,88.09
2019-03-12T04:16:23.630Z,88.82
2019-03-12T04:17:23.635Z,88.61
2019-03-12T04:18:23.588Z,87.37
2019-03-12T04:19:23.580Z,87.78
2019-03-12T04:20:23.575Z,88.09
2019-03-12T04:21:23.560Z,87.37
2019-03-12T04:22:23.567Z,88.61
2019-03-12T04:23:23.539Z,88.40
2019-03-12T04:24:23.523Z,87.37
2019-03-12T04:25:31.062Z,87.37
2019-03-12T04:26:33.628Z,88.09
2019-03-12T04:27:32.339Z,87.26
2019-03-12T04:28:23.487Z,87.37
2019-03-12T04:29:23.498Z,88.71
2019-03-12T04:30:23.454Z,88.61
2019-03-12T04:31:23.445Z,87.68
2019-03-12T04:32:23.476Z,86.64
2019-03-12T04:33:23.448Z,86.99
2019-03-12T04:34:23.430Z,87.05
2019-03-12T04:35:23.413Z,86.78
2019-03-12T04:36:23.386Z,86.74
2019-03-12T04:37:23.409Z,87.26
2019-03-12T04:38:23.367Z,87.16
2019-03-12T04:39:23.375Z,87.26
2019-03-12T04:40:23.363Z,87.57
2019-03-12T04:41:23.336Z,87.16
2019-03-12T04:42:23.327Z,87.57
2019-03-12T04:43:23.310Z,87.16
2019-03-12T04:44:23.293Z,87.37
2019-03-12T04:45:23.300Z,87.26
2019-03-12T04:46:23.286Z,87.26
2019-03-12T04:47:23.331Z,87.37
2019-03-12T04:48:23.278Z,87.16
2019-03-12T04:49:23.241Z,87.37
2019-03-12T04:50:23.257Z,87.16
2019-03-12T04:51:23.302Z,86.64
2019-03-12T04:52:23.250Z,87.05
2019-03-12T04:53:23.259Z,86.22
2019-03-12T04:54:23.265Z,86.22
2019-03-12T04:55:23.206Z,85.81
2019-03-12T04:56:23.178Z,85.19
2019-03-12T04:57:23.202Z,86.64
2019-03-12T04:58:23.229Z,86.88
2019-03-12T04:59:23.153Z,86.54
2019-03-12T05:00:23.246Z,86.12
2019-03-12T05:01:23.591Z,85.39
2019-03-12T05:02:23.125Z,85.91
2019-03-12T05:03:23.152Z,84.56
2019-03-12T05:04:23.292Z,85.08
2019-03-12T05:05:23.074Z,85.71
2019-03-12T05:06:23.200Z,85.29
2019-03-12T05:07:23.197Z,85.19
2019-03-12T05:08:23.066Z,84.77
2019-03-12T05:09:23.078Z,85.60
2019-03-12T05:10:23.083Z,85.71
2019-03-12T05:11:23.277Z,85.19
2019-03-12T05:12:23.120Z,85.19
2019-03-12T05:13:23.025Z,85.19
2019-03-12T05:14:23.065Z,85.29
2019-03-12T05:15:23.047Z,83.84
2019-03-12T05:16:23.028Z,84.05
2019-03-12T05:17:22.961Z,84.15
2019-03-12T05:18:22.929Z,84.25
2019-03-12T05:19:22.932Z,83.73
2019-03-12T05:20:22.892Z,83.53
2019-03-12T05:21:22.877Z,83.63
2019-03-12T05:22:22.891Z,83.63
2019-03-12T05:23:22.856Z,83.63
2019-03-12T05:24:22.862Z,83.77
2019-03-12T05:25:22.845Z,84.25
2019-03-12T05:26:22.820Z,83.63
2019-03-12T05:27:25.010Z,84.25
2019-03-12T05:28:22.812Z,83.98
2019-03-12T05:29:22.798Z,84.25
2019-03-12T05:30:22.812Z,84.39
2019-03-12T05:31:22.761Z,84.50
2019-03-12T05:32:22.784Z,84.50
2019-03-12T05:33:22.749Z,84.19
2019-03-12T05:34:23.328Z,84.46
2019-03-12T05:35:22.726Z,83.84
2019-03-12T05:36:22.715Z,84.05
2019-03-12T05:37:22.738Z,83.84
2019-03-12T05:38:22.695Z,83.94
2019-03-12T05:39:22.708Z,84.15
2019-03-12T05:40:22.664Z,84.15
2019-03-12T05:41:22.661Z,84.25
2019-03-12T05:42:22.653Z,84.25
2019-03-12T05:43:22.636Z,84.05
2019-03-12T05:44:22.614Z,83.94
2019-03-12T05:45:22.605Z,84.25
2019-03-12T05:46:22.646Z,83.73
2019-03-12T05:47:22.611Z,83.73
2019-03-12T05:48:22.572Z,83.32
2019-03-12T05:49:22.641Z,83.22
2019-03-12T05:50:22.571Z,83.73
2019-03-12T05:51:22.536Z,83.53
2019-03-12T05:52:22.541Z,83.53
2019-03-12T05:53:22.548Z,83.63
2019-03-12T05:54:22.508Z,83.63
2019-03-12T05:55:22.488Z,83.53
2019-03-12T05:56:22.498Z,83.01
2019-03-12T05:57:22.485Z,83.42
2019-03-12T05:58:22.863Z,83.53
2019-03-12T05:59:22.441Z,83.32
2019-03-12T06:00:22.427Z,83.73
2019-03-12T06:01:22.422Z,83.53
2019-03-12T06:02:22.434Z,83.53
2019-03-12T06:03:22.416Z,83.53
2019-03-12T06:04:22.419Z,82.49
2019-03-12T06:05:22.516Z,83.73
2019-03-12T06:06:22.372Z,81.45
2019-03-12T06:07:22.365Z,81.76
2019-03-12T06:08:22.345Z,81.56
2019-03-12T06:09:30.222Z,81.76
2019-03-12T06:10:24.111Z,81.87
2019-03-12T06:11:22.355Z,82.18
2019-03-12T06:12:22.308Z,81.56
2019-03-12T06:13:22.315Z,82.07
2019-03-12T06:14:22.301Z,82.49
2019-03-12T06:15:22.289Z,82.07
2019-03-12T06:16:22.251Z,81.56
2019-03-12T06:17:22.247Z,82.28
2019-03-12T06:18:22.228Z,81.04
2019-03-12T06:19:22.246Z,81.66
2019-03-12T06:20:22.224Z,81.97
2019-03-12T06:21:22.235Z,81.87
2019-03-12T06:22:22.182Z,81.56
2019-03-12T06:23:22.169Z,80.62
2019-03-12T06:24:22.176Z,81.45
2019-03-12T06:25:22.183Z,82.39
2019-03-12T06:26:22.156Z,82.07
2019-03-12T06:27:22.176Z,82.28
2019-03-12T06:28:22.112Z,81.97
2019-03-12T06:29:22.104Z,81.82
2019-03-12T06:30:22.113Z,81.93
2019-03-12T06:31:22.277Z,81.30
2019-03-12T06:32:22.106Z,81.82
2019-03-12T06:33:24.339Z,81.72
2019-03-12T06:34:22.042Z,82.24
2019-03-12T06:35:22.047Z,81.82
2019-03-12T06:36:22.030Z,82.65
2019-03-12T06:37:22.048Z,82.65
2019-03-12T06:38:21.996Z,82.65
2019-03-12T06:39:22.004Z,82.76
2019-03-12T06:40:22.291Z,82.41
2019-03-12T06:41:22.007Z,83.38
2019-03-12T06:42:21.971Z,83.45
2019-03-12T06:43:22.028Z,82.51
2019-03-12T06:44:21.934Z,82.31
2019-03-12T06:45:21.922Z,83.45
2019-03-12T06:46:22.159Z,82.41
2019-03-12T06:47:21.902Z,82.62
2019-03-12T06:48:21.923Z,82.17
2019-03-12T06:49:21.907Z,81.75
2019-03-12T06:50:21.863Z,81.54
2019-03-12T06:51:21.866Z,82.68
2019-03-12T06:52:21.851Z,81.85
2019-03-12T06:53:21.842Z,81.79
2019-03-12T06:54:21.832Z,82.72
2019-03-12T06:55:21.835Z,82.93
2019-03-12T06:56:21.801Z,82.17
2019-03-12T06:57:21.798Z,82.10
2019-03-12T06:58:22.641Z,82.48
2019-03-12T06:59:21.849Z,83.31
2019-03-12T07:00:21.785Z,82.89
2019-03-12T07:01:22.030Z,82.48
2019-03-12T07:02:21.754Z,82.48
2019-03-12T07:03:21.753Z,82.79
2019-03-12T07:04:22.067Z,82.89
2019-03-12T07:05:22.645Z,82.89
2019-03-12T07:06:22.169Z,83.14
2019-03-12T07:07:21.870Z,83.51
2019-03-12T07:08:21.731Z,83.72
2019-03-12T07:09:22.608Z,83.10
2019-03-12T07:10:21.660Z,83.93
2019-03-12T07:11:21.756Z,84.03
2019-03-12T07:12:21.617Z,83.93
2019-03-12T07:13:21.617Z,84.55
2019-03-12T07:14:22.820Z,84.13
2019-03-12T07:15:21.734Z,84.86
2019-03-12T07:16:21.689Z,84.86
2019-03-12T07:17:21.615Z,84.34
2019-03-12T07:18:21.567Z,84.86
2019-03-12T07:19:21.534Z,85.06
2019-03-12T07:20:21.538Z,85.06
2019-03-12T07:21:21.659Z,85.06
2019-03-12T07:22:21.750Z,84.86
2019-03-12T07:23:21.663Z,84.34
2019-03-12T07:24:21.480Z,84.41
2019-03-12T07:25:21.468Z,84.30
2019-03-12T07:26:21.459Z,84.51
2019-03-12T07:27:21.465Z,83.58
2019-03-12T07:28:21.452Z,84.51
2019-03-12T07:29:21.422Z,83.89
2019-03-12T07:30:21.489Z,83.99
2019-03-12T07:31:21.470Z,83.99
2019-03-12T07:32:21.408Z,84.09
2019-03-12T07:33:21.409Z,83.58
2019-03-12T07:34:21.430Z,84.27
2019-03-12T07:35:22.783Z,83.95
2019-03-12T07:36:21.343Z,83.64
2019-03-12T07:37:21.378Z,83.54
2019-03-12T07:38:21.326Z,83.95
2019-03-12T07:39:21.313Z,84.06
2019-03-12T07:40:21.303Z,83.85
2019-03-12T07:41:30.257Z,83.95
2019-03-12T07:42:22.302Z,83.85
2019-03-12T07:43:21.559Z,84.12
2019-03-12T07:44:21.262Z,84.53
2019-03-12T07:45:21.354Z,83.91
2019-03-12T07:46:21.233Z,84.01
2019-03-12T07:47:21.235Z,83.81
2019-03-12T07:48:21.273Z,83.81
2019-03-12T07:49:21.199Z,83.81
2019-03-12T07:50:21.193Z,83.29
2019-03-12T07:51:22.103Z,84.12
2019-03-12T07:52:21.173Z,83.77
2019-03-12T07:53:21.151Z,83.81
2019-03-12T07:54:21.141Z,83.98
2019-03-12T07:55:21.133Z,84.01
2019-03-12T07:56:21.132Z,83.25
2019-03-12T07:57:21.120Z,83.56
2019-03-12T07:58:21.096Z,83.87
2019-03-12T07:59:21.086Z,83.77
2019-03-12T08:00:21.599Z,83.50
2019-03-12T08:01:21.077Z,83.40
2019-03-12T08:02:21.103Z,83.81
2019-03-12T08:03:21.163Z,83.87
2019-03-12T08:04:21.024Z,83.87
2019-03-12T08:05:21.012Z,83.67
2019-03-12T08:06:21.010Z,84.29
2019-03-12T08:07:21.022Z,84.29
2019-03-12T08:08:21.007Z,84.50
2019-03-12T08:09:21.017Z,84.39
2019-03-12T08:10:20.956Z,84.29
2019-03-12T08:11:20.956Z,84.08
2019-03-12T08:12:20.966Z,84.08
2019-03-12T08:13:20.940Z,83.87
2019-03-12T08:14:20.906Z,83.84
2019-03-12T08:15:23.448Z,83.63
2019-03-12T08:16:20.890Z,83.63
2019-03-12T08:17:20.896Z,83.73
2019-03-12T08:18:20.871Z,84.36
2019-03-12T08:19:20.878Z,83.53
2019-03-12T08:20:20.852Z,83.28
2019-03-12T08:21:22.575Z,83.07
2019-03-12T08:22:20.844Z,83.49
2019-03-12T08:23:20.807Z,83.32
2019-03-12T08:24:20.812Z,82.66
2019-03-12T08:25:20.781Z,82.87
2019-03-12T08:26:20.785Z,83.32
2019-03-12T08:27:20.776Z,83.32
2019-03-12T08:28:20.786Z,83.32
2019-03-12T08:29:20.770Z,83.39
2019-03-12T08:30:20.720Z,82.87
2019-03-12T08:31:20.718Z,82.97
2019-03-12T08:32:23.728Z,82.97
2019-03-12T08:33:20.697Z,82.56
2019-03-12T08:34:20.679Z,83.28
2019-03-12T08:35:20.712Z,82.66
2019-03-12T08:36:21.016Z,82.21
2019-03-12T08:37:20.648Z,83.49
2019-03-12T08:38:20.868Z,82.93
2019-03-12T08:39:20.620Z,81.90
2019-03-12T08:40:20.618Z,81.70
2019-03-12T08:41:20.621Z,81.42
2019-03-12T08:42:20.597Z,81.28
2019-03-12T08:43:20.570Z,81.49
2019-03-12T08:44:20.584Z,81.32
2019-03-12T08:45:20.588Z,81.18
2019-03-12T08:46:22.320Z,80.76
2019-03-12T08:47:20.523Z,80.46
2019-03-12T08:48:20.514Z,80.25
2019-03-12T08:49:20.500Z,80.35
2019-03-12T08:50:20.491Z,80.46
2019-03-12T08:51:20.483Z,79.59
2019-03-12T08:52:20.502Z,80.21
2019-03-12T08:53:20.457Z,80.00
2019-03-12T08:54:21.596Z,80.00
2019-03-12T08:55:20.441Z,80.00
2019-03-12T08:56:20.443Z,79.66
2019-03-12T08:57:20.421Z,78.94
2019-03-12T08:58:20.405Z,79.66
2019-03-12T08:59:20.389Z,79.25
2019-03-12T09:00:20.375Z,78.21
2019-03-12T09:01:20.727Z,78.94
2019-03-12T09:02:20.357Z,78.21
2019-03-12T09:03:20.362Z,78.42
2019-03-12T09:04:20.340Z,77.53
2019-03-12T09:05:20.319Z,77.80
2019-03-12T09:06:20.309Z,78.01
2019-03-12T09:07:20.311Z,79.14
2019-03-12T09:08:20.308Z,78.52
2019-03-12T09:09:20.272Z,78.59
2019-03-12T09:10:20.269Z,77.08
2019-03-12T09:11:20.249Z,77.45
2019-03-12T09:12:20.272Z,77.04
2019-03-12T09:13:20.231Z,77.18
2019-03-12T09:14:20.238Z,77.49
2019-03-12T09:15:20.205Z,77.80
2019-03-12T09:16:20.210Z,77.49
2019-03-12T09:17:20.194Z,78.08
2019-03-12T09:18:20.203Z,77.28
2019-03-12T09:19:20.171Z,77.25
2019-03-12T09:20:20.174Z,76.56
2019-03-12T09:21:20.141Z,76.25
2019-03-12T09:22:20.157Z,76.56
2019-03-12T09:23:20.115Z,76.73
2019-03-12T09:24:20.102Z,76.25
2019-03-12T09:25:20.110Z,76.53
2019-03-12T09:26:20.079Z,76.12
2019-03-12T09:27:20.066Z,76.42
2019-03-12T09:28:20.082Z,76.63
2019-03-12T09:29:20.163Z,77.04
2019-03-12T09:30:20.068Z,76.18
2019-03-12T09:31:20.049Z,76.08
2019-03-12T09:32:20.165Z,75.77
2019-03-12T09:33:20.002Z,75.36
2019-03-12T09:34:19.989Z,74.84
2019-03-12T09:35:19.992Z,74.95
2019-03-12T09:36:19.991Z,75.05
2019-03-12T09:37:19.990Z,74.50
2019-03-12T09:38:19.965Z,73.71
2019-03-12T09:39:19.929Z,72.58
2019-03-12T09:40:19.941Z,72.33
2019-03-12T09:41:19.916Z,72.85
2019-03-12T09:42:19.929Z,72.23
2019-03-12T09:43:19.887Z,72.33
2019-03-12T09:44:19.873Z,72.33
2019-03-12T09:45:19.865Z,71.61
2019-03-12T09:46:19.866Z,71.17
2019-03-12T09:47:19.972Z,70.89
2019-03-12T09:48:19.893Z,70.89
2019-03-12T09:49:19.832Z,70.37
2019-03-12T09:50:19.809Z,68.90
2019-03-12T09:51:19.797Z,69.83
2019-03-12T09:52:19.814Z,69.93
2019-03-12T09:53:19.786Z,70.17
2019-03-12T09:54:19.764Z,70.34
2019-03-12T09:55:19.745Z,70.21
2019-03-12T09:56:19.743Z,70.93
2019-03-12T09:57:19.751Z,70.00
2019-03-12T09:58:19.720Z,70.10
2019-03-12T09:59:19.726Z,69.87
2019-03-12T10:00:19.690Z,69.97
2019-03-12T10:01:19.678Z,69.04
2019-03-12T10:02:19.756Z,68.84
2019-03-12T10:03:19.661Z,67.71
2019-03-12T10:04:19.691Z,67.50
2019-03-12T10:05:19.635Z,67.91
2019-03-12T10:06:19.631Z,67.71
2019-03-12T10:07:19.621Z,67.40
2019-03-12T10:08:19.609Z,66.99
2019-03-12T10:09:19.593Z,67.16
2019-03-12T10:10:19.607Z,66.34
2019-03-12T10:11:19.565Z,66.24
2019-03-12T10:12:19.566Z,65.34
2019-03-12T10:13:19.554Z,65.62
2019-03-12T10:14:19.550Z,65.95
2019-03-12T10:15:19.535Z,66.27
2019-03-12T10:16:19.508Z,65.62
2019-03-12T10:17:19.518Z,66.06
2019-03-12T10:18:19.540Z,65.62
2019-03-12T10:19:19.629Z,64.48
2019-03-12T10:20:19.466Z,64.93
2019-03-12T10:21:19.467Z,66.24
2019-03-12T10:22:19.481Z,65.83
2019-03-12T10:23:19.432Z,65.31
2019-03-12T10:24:19.417Z,64.59
2019-03-12T10:25:19.417Z,64.18
2019-03-12T10:26:19.407Z,64.59
2019-03-12T10:27:19.416Z,63.97
2019-03-12T10:28:19.375Z,64.04
2019-03-12T10:29:19.359Z,63.53
2019-03-12T10:30:19.455Z,63.64
2019-03-12T10:31:19.342Z,63.12
2019-03-12T10:32:19.336Z,62.78
2019-03-12T10:33:19.343Z,61.35
2019-03-12T10:34:28.958Z,60.96
2019-03-12T10:35:20.316Z,61.04
2019-03-12T10:36:19.462Z,61.35
2019-03-12T10:37:19.279Z,61.00
2019-03-12T10:38:19.355Z,60.91
2019-03-12T10:39:19.273Z,61.21
2019-03-12T10:40:19.403Z,60.88
2019-03-12T10:41:19.326Z,60.26
2019-03-12T10:42:19.217Z,59.44
2019-03-12T10:43:19.212Z,59.44
2019-03-12T10:44:19.215Z,59.44
2019-03-12T10:45:19.241Z,59.54
2019-03-12T10:46:19.172Z,58.83
2019-03-12T10:47:19.156Z,59.23
2019-03-12T10:48:19.151Z,59.06
2019-03-12T10:49:19.164Z,58.72
2019-03-12T10:50:19.154Z,58.72
2019-03-12T10:51:19.117Z,58.85
2019-03-12T10:52:19.126Z,58.23
2019-03-12T10:53:19.093Z,58.44
2019-03-12T10:54:19.101Z,58.44
2019-03-12T10:55:19.103Z,58.95
2019-03-12T10:56:19.054Z,58.64
2019-03-12T10:57:21.465Z,57.31
2019-03-12T10:58:19.036Z,57.31
2019-03-12T10:59:19.046Z,56.90
2019-03-12T11:00:19.033Z,57.31
2019-03-12T11:01:18.998Z,57.51
2019-03-12T11:02:18.994Z,57.31
2019-03-12T11:03:18.978Z,57.72
2019-03-12T11:04:19.104Z,58.03
2019-03-12T11:05:18.967Z,58.23
2019-03-12T11:06:19.599Z,58.03
2019-03-12T11:07:18.986Z,58.64
2019-03-12T11:08:18.915Z,58.36
2019-03-12T11:09:18.927Z,59.19
2019-03-12T11:10:18.910Z,58.87
2019-03-12T11:11:18.908Z,58.80
2019-03-12T11:12:18.892Z,58.87
2019-03-12T11:13:18.859Z,58.57
2019-03-12T11:14:18.868Z,59.08
2019-03-12T11:15:18.846Z,58.78
2019-03-12T11:16:18.833Z,57.95
2019-03-12T11:17:18.842Z,58.06
2019-03-12T11:18:18.806Z,57.13
2019-03-12T11:19:18.865Z,56.51
2019-03-12T11:20:18.781Z,57.62
2019-03-12T11:21:18.789Z,57.10
2019-03-12T11:22:18.768Z,56.38
2019-03-12T11:23:18.745Z,56.38
2019-03-12T11:24:18.763Z,55.77
2019-03-12T11:25:27.264Z,56.08
2019-03-12T11:27:29.045Z,56.51
2019-03-12T11:28:29.049Z,56.00
2019-03-12T11:29:29.027Z,56.18
2019-03-12T11:30:29.008Z,57.10
2019-03-12T11:31:28.996Z,55.95
2019-03-12T11:32:29.002Z,54.51
2019-03-12T11:33:28.986Z,54.72
2019-03-12T11:34:29.002Z,54.51
2019-03-12T11:35:38.618Z,54.92
2019-03-12T11:36:29.969Z,54.10
2019-03-12T11:37:28.926Z,54.49
2019-03-12T11:38:28.924Z,54.28
2019-03-12T11:39:29.177Z,53.56
2019-03-12T11:40:31.929Z,51.72
2019-03-12T11:41:28.883Z,52.31
2019-03-12T11:42:28.880Z,52.84
2019-03-12T11:43:28.901Z,51.39
2019-03-12T11:44:28.956Z,51.90
2019-03-12T11:45:36.380Z,50.77
2019-03-12T11:46:40.782Z,50.05
2019-03-12T11:47:29.837Z,49.35
2019-03-12T11:48:28.802Z,49.35
2019-03-12T11:49:29.218Z,49.46
2019-03-12T11:50:28.791Z,49.87
2019-03-12T11:51:28.771Z,50.15
2019-03-12T11:52:28.770Z,49.95
2019-03-12T11:53:28.792Z,50.79
2019-03-12T11:54:28.797Z,51.07
2019-03-12T11:55:28.744Z,51.39
2019-03-12T11:56:28.729Z,51.28
2019-03-12T11:57:28.703Z,50.69
2019-03-12T11:58:28.737Z,50.15
2019-03-12T11:59:28.713Z,49.82
2019-03-12T12:00:28.799Z,50.77
2019-03-12T12:01:28.661Z,49.62
2019-03-12T12:02:28.672Z,48.08
2019-03-12T12:03:28.676Z,49.72
2019-03-12T12:04:28.633Z,49.31
2019-03-12T12:05:28.612Z,49.39
2019-03-12T12:06:28.654Z,48.28
2019-03-12T12:07:28.602Z,48.98
2019-03-12T12:08:28.616Z,48.59
2019-03-12T12:09:28.720Z,49.69
2019-03-12T12:10:28.563Z,49.41
2019-03-12T12:11:28.544Z,48.26
2019-03-12T12:12:28.535Z,49.18
2019-03-12T12:13:28.531Z,49.69
2019-03-12T12:14:28.569Z,51.13
2019-03-12T12:15:28.554Z,51.98
2019-03-12T12:16:28.485Z,51.56
2019-03-12T12:17:28.487Z,48.28
2019-03-12T12:18:28.476Z,49.72
2019-03-12T12:19:28.453Z,49.72
2019-03-12T12:20:30.317Z,49.74
2019-03-12T12:21:28.434Z,49.13
2019-03-12T12:22:28.423Z,49.54
2019-03-12T12:23:28.423Z,50.15
2019-03-12T12:24:28.456Z,48.21
2019-03-12T12:25:28.389Z,48.61
2019-03-12T12:26:28.374Z,49.02
2019-03-12T12:27:28.436Z,48.94
2019-03-12T12:28:28.364Z,48.74
2019-03-12T12:29:28.340Z,49.43
2019-03-12T12:30:28.375Z,49.33
2019-03-12T12:31:38.257Z,48.92
2019-03-12T12:32:28.300Z,48.41
2019-03-12T12:33:28.309Z,49.72
2019-03-12T12:34:28.307Z,49.41
2019-03-12T12:35:28.282Z,50.72
2019-03-12T12:36:28.288Z,49.18
2019-03-12T12:37:28.245Z,49.49
2019-03-12T12:38:28.244Z,50.10
2019-03-12T12:39:28.228Z,48.16
2019-03-12T12:40:28.215Z,47.96
2019-03-12T12:41:28.216Z,47.96
2019-03-12T12:42:28.226Z,46.93
2019-03-12T12:43:28.175Z,47.64
2019-03-12T12:44:28.171Z,47.22
2019-03-12T12:45:28.205Z,46.62
2019-03-12T12:46:28.155Z,46.39
2019-03-12T12:47:28.158Z,46.60
2019-03-12T12:48:28.382Z,45.70
2019-03-12T12:49:28.170Z,45.68
2019-03-12T12:50:28.097Z,46.11
2019-03-12T12:51:28.112Z,45.37
2019-03-12T12:52:28.088Z,44.98
2019-03-12T12:53:28.127Z,44.47